sensor_id;sensor_type;location;lat;lon;timestamp;pressure;altitude;pressure_sealevel;temperature;humidity
46690;BME280;32423;45.398;10.874;2024-03-23T00:53:36;100664.75;;;14.86;53.49
46690;BME280;32423;45.398;10.874;2024-03-23T00:56:31;100659.03;;;14.79;53.20
46690;BME280;32423;45.398;10.874;2024-03-23T00:59:20;100661.69;;;14.75;53.01
46690;BME280;32423;45.398;10.874;2024-03-23T01:02:11;100657.25;;;14.71;53.19
46690;BME280;32423;45.398;10.874;2024-03-23T01:05:06;100656.44;;;14.70;53.42
46690;BME280;32423;45.398;10.874;2024-03-23T01:07:56;100645.03;;;14.68;53.38
46690;BME280;32423;45.398;10.874;2024-03-23T01:10:55;100640.91;;;14.74;53.43
46690;BME280;32423;45.398;10.874;2024-03-23T01:13:50;100646.06;;;14.64;53.41
46690;BME280;32423;45.398;10.874;2024-03-23T01:16:39;100644.25;;;14.55;53.83
46690;BME280;32423;45.398;10.874;2024-03-23T01:19:34;100645.97;;;14.60;54.08
46690;BME280;32423;45.398;10.874;2024-03-23T01:22:26;100650.50;;;14.32;54.39
46690;BME280;32423;45.398;10.874;2024-03-23T01:25:21;100644.69;;;14.21;55.16
46690;BME280;32423;45.398;10.874;2024-03-23T01:28:15;100641.72;;;14.26;55.27
46690;BME280;32423;45.398;10.874;2024-03-23T01:31:10;100638.53;;;14.24;55.46
46690;BME280;32423;45.398;10.874;2024-03-23T01:34:05;100639.09;;;14.18;55.25
46690;BME280;32423;45.398;10.874;2024-03-23T01:36:59;100640.78;;;14.22;55.01
46690;BME280;32423;45.398;10.874;2024-03-23T01:39:54;100643.19;;;14.24;54.79
46690;BME280;32423;45.398;10.874;2024-03-23T01:42:58;100638.84;;;14.23;54.93
46690;BME280;32423;45.398;10.874;2024-03-23T01:45:52;100631.91;;;14.13;55.14
46690;BME280;32423;45.398;10.874;2024-03-23T01:48:47;100626.66;;;14.08;55.13
46690;BME280;32423;45.398;10.874;2024-03-23T01:51:43;100623.25;;;13.99;55.26
46690;BME280;32423;45.398;10.874;2024-03-23T01:54:38;100624.72;;;13.96;55.30
46690;BME280;32423;45.398;10.874;2024-03-23T01:57:30;100619.13;;;13.93;55.41
46690;BME280;32423;45.398;10.874;2024-03-23T02:00:25;100621.06;;;13.92;55.57
46690;BME280;32423;45.398;10.874;2024-03-23T02:03:28;100609.09;;;13.85;55.82
46690;BME280;32423;45.398;10.874;2024-03-23T02:06:21;100606.91;;;13.78;56.33
46690;BME280;32423;45.398;10.874;2024-03-23T02:09:15;100598.72;;;13.78;56.32
46690;BME280;32423;45.398;10.874;2024-03-23T02:12:09;100607.50;;;13.84;56.40
46690;BME280;32423;45.398;10.874;2024-03-23T02:15:03;100603.63;;;13.85;56.29
46690;BME280;32423;45.398;10.874;2024-03-23T02:17:57;100594.41;;;13.89;56.05
46690;BME280;32423;45.398;10.874;2024-03-23T02:20:52;100594.16;;;13.82;56.11
46690;BME280;32423;45.398;10.874;2024-03-23T02:23:42;100589.94;;;13.73;56.59
46690;BME280;32423;45.398;10.874;2024-03-23T02:26:36;100585.16;;;13.82;56.37
46690;BME280;32423;45.398;10.874;2024-03-23T02:29:31;100590.63;;;13.82;56.19
46690;BME280;32423;45.398;10.874;2024-03-23T02:32:25;100581.88;;;13.76;56.41
46690;BME280;32423;45.398;10.874;2024-03-23T02:35:17;100576.41;;;13.76;56.17
46690;BME280;32423;45.398;10.874;2024-03-23T02:38:12;100577.41;;;13.71;56.43
46690;BME280;32423;45.398;10.874;2024-03-23T02:41:09;100561.94;;;13.76;56.30
46690;BME280;32423;45.398;10.874;2024-03-23T02:44:04;100570.00;;;13.72;56.58
46690;BME280;32423;45.398;10.874;2024-03-23T02:46:58;100571.03;;;13.67;56.30
46690;BME280;32423;45.398;10.874;2024-03-23T02:49:53;100572.38;;;13.61;56.93
46690;BME280;32423;45.398;10.874;2024-03-23T02:52:43;100566.47;;;13.59;56.55
46690;BME280;32423;45.398;10.874;2024-03-23T02:55:35;100571.81;;;13.68;56.20
46690;BME280;32423;45.398;10.874;2024-03-23T02:58:30;100566.69;;;13.54;56.40
46690;BME280;32423;45.398;10.874;2024-03-23T03:01:24;100564.53;;;13.60;56.44
46690;BME280;32423;45.398;10.874;2024-03-23T03:04:19;100559.84;;;13.48;56.69
46690;BME280;32423;45.398;10.874;2024-03-23T03:07:13;100566.00;;;13.57;56.30
46690;BME280;32423;45.398;10.874;2024-03-23T03:10:08;100557.25;;;13.64;56.20
46690;BME280;32423;45.398;10.874;2024-03-23T03:13:00;100557.22;;;13.52;56.16
46690;BME280;32423;45.398;10.874;2024-03-23T03:15:55;100562.13;;;13.58;56.46
46690;BME280;32423;45.398;10.874;2024-03-23T03:18:49;100550.53;;;13.49;56.96
46690;BME280;32423;45.398;10.874;2024-03-23T03:21:44;100549.69;;;13.37;56.74
46690;BME280;32423;45.398;10.874;2024-03-23T03:24:39;100548.22;;;13.39;56.93
46690;BME280;32423;45.398;10.874;2024-03-23T03:27:31;100548.22;;;13.39;56.72
46690;BME280;32423;45.398;10.874;2024-03-23T03:30:26;100536.50;;;13.39;56.71
46690;BME280;32423;45.398;10.874;2024-03-23T03:33:21;100537.41;;;13.31;57.09
46690;BME280;32423;45.398;10.874;2024-03-23T03:36:15;100533.72;;;13.26;57.13
46690;BME280;32423;45.398;10.874;2024-03-23T03:39:10;100527.72;;;13.33;57.21
46690;BME280;32423;45.398;10.874;2024-03-23T03:42:04;100523.59;;;13.27;57.18
46690;BME280;32423;45.398;10.874;2024-03-23T03:44:59;100521.88;;;13.22;57.41
46690;BME280;32423;45.398;10.874;2024-03-23T03:47:53;100522.59;;;13.32;56.65
46690;BME280;32423;45.398;10.874;2024-03-23T03:50:48;100509.28;;;13.30;57.23
46690;BME280;32423;45.398;10.874;2024-03-23T03:53:42;100506.09;;;13.28;57.12
46690;BME280;32423;45.398;10.874;2024-03-23T03:56:37;100507.91;;;13.24;57.15
46690;BME280;32423;45.398;10.874;2024-03-23T03:59:29;100509.56;;;13.16;57.34
46690;BME280;32423;45.398;10.874;2024-03-23T04:02:21;100503.66;;;13.14;57.34
46690;BME280;32423;45.398;10.874;2024-03-23T04:05:16;100498.41;;;13.09;57.32
46690;BME280;32423;45.398;10.874;2024-03-23T04:08:10;100494.59;;;13.02;57.52
46690;BME280;32423;45.398;10.874;2024-03-23T04:11:05;100495.19;;;13.07;57.42
46690;BME280;32423;45.398;10.874;2024-03-23T04:13:59;100492.34;;;13.04;57.27
46690;BME280;32423;45.398;10.874;2024-03-23T04:16:55;100491.00;;;13.10;57.40
46690;BME280;32423;45.398;10.874;2024-03-23T04:19:49;100497.09;;;13.15;57.13
46690;BME280;32423;45.398;10.874;2024-03-23T04:22:44;100484.09;;;13.12;57.10
46690;BME280;32423;45.398;10.874;2024-03-23T04:25:38;100486.41;;;13.02;57.45
46690;BME280;32423;45.398;10.874;2024-03-23T04:28:33;100488.09;;;13.15;57.03
46690;BME280;32423;45.398;10.874;2024-03-23T04:31:27;100485.88;;;13.08;57.50
46690;BME280;32423;45.398;10.874;2024-03-23T04:34:22;100483.16;;;13.08;57.41
46690;BME280;32423;45.398;10.874;2024-03-23T04:37:19;100477.53;;;12.93;57.51
46690;BME280;32423;45.398;10.874;2024-03-23T04:40:14;100472.97;;;12.97;57.55
46690;BME280;32423;45.398;10.874;2024-03-23T04:43:06;100479.66;;;12.87;57.52
46690;BME280;32423;45.398;10.874;2024-03-23T04:45:58;100486.94;;;12.83;57.75
46690;BME280;32423;45.398;10.874;2024-03-23T04:48:50;100484.09;;;12.79;57.90
46690;BME280;32423;45.398;10.874;2024-03-23T04:51:42;100491.25;;;12.84;57.89
46690;BME280;32423;45.398;10.874;2024-03-23T04:54:37;100469.75;;;12.82;58.12
46690;BME280;32423;45.398;10.874;2024-03-23T04:57:32;100473.41;;;12.86;58.17
46690;BME280;32423;45.398;10.874;2024-03-23T05:00:26;100473.41;;;12.86;57.91
46690;BME280;32423;45.398;10.874;2024-03-23T05:03:21;100461.56;;;12.82;57.92
46690;BME280;32423;45.398;10.874;2024-03-23T05:06:13;100457.66;;;12.71;58.13
46690;BME280;32423;45.398;10.874;2024-03-23T05:09:05;100456.53;;;12.72;58.33
46690;BME280;32423;45.398;10.874;2024-03-23T05:12:01;100461.44;;;12.79;57.60
46690;BME280;32423;45.398;10.874;2024-03-23T05:14:55;100451.28;;;12.67;58.03
46690;BME280;32423;45.398;10.874;2024-03-23T05:17:47;100445.28;;;12.74;58.06
46690;BME280;32423;45.398;10.874;2024-03-23T05:20:42;100449.34;;;12.68;58.24
46690;BME280;32423;45.398;10.874;2024-03-23T05:23:36;100445.88;;;12.79;58.06
46690;BME280;32423;45.398;10.874;2024-03-23T05:26:31;100451.66;;;12.78;58.20
46690;BME280;32423;45.398;10.874;2024-03-23T05:29:23;100444.50;;;12.73;57.94
46690;BME280;32423;45.398;10.874;2024-03-23T05:32:15;100443.81;;;12.76;58.35
46690;BME280;32423;45.398;10.874;2024-03-23T05:35:08;100441.28;;;12.71;58.62
46690;BME280;32423;45.398;10.874;2024-03-23T05:38:03;100443.22;;;12.71;58.49
46690;BME280;32423;45.398;10.874;2024-03-23T05:41:04;100445.34;;;12.65;58.95
46690;BME280;32423;45.398;10.874;2024-03-23T05:43:58;100443.38;;;12.74;58.73
46690;BME280;32423;45.398;10.874;2024-03-23T05:46:50;100439.53;;;12.88;58.54
46690;BME280;32423;45.398;10.874;2024-03-23T05:49:43;100441.34;;;12.83;58.47
46690;BME280;32423;45.398;10.874;2024-03-23T05:52:38;100440.81;;;13.02;58.15
46690;BME280;32423;45.398;10.874;2024-03-23T05:55:30;100447.88;;;13.03;58.46
46690;BME280;32423;45.398;10.874;2024-03-23T05:58:22;100448.19;;;13.02;58.51
46690;BME280;32423;45.398;10.874;2024-03-23T06:01:14;100448.41;;;12.97;58.84
46690;BME280;32423;45.398;10.874;2024-03-23T06:04:10;100449.59;;;13.08;59.02
46690;BME280;32423;45.398;10.874;2024-03-23T06:07:04;100439.56;;;13.00;58.98
46690;BME280;32423;45.398;10.874;2024-03-23T06:09:56;100435.44;;;12.94;58.59
46690;BME280;32423;45.398;10.874;2024-03-23T06:12:56;100439.69;;;13.03;58.91
46690;BME280;32423;45.398;10.874;2024-03-23T06:15:50;100432.19;;;13.00;59.27
46690;BME280;32423;45.398;10.874;2024-03-23T06:18:45;100441.56;;;12.91;59.36
46690;BME280;32423;45.398;10.874;2024-03-23T06:21:41;100436.47;;;12.89;59.73
46690;BME280;32423;45.398;10.874;2024-03-23T06:24:34;100434.31;;;12.95;59.81
46690;BME280;32423;45.398;10.874;2024-03-23T06:27:29;100431.81;;;13.02;59.72
46690;BME280;32423;45.398;10.874;2024-03-23T06:30:26;100434.91;;;13.00;59.92
46690;BME280;32423;45.398;10.874;2024-03-23T06:33:21;100437.19;;;13.10;60.17
46690;BME280;32423;45.398;10.874;2024-03-23T06:36:15;100425.97;;;13.12;59.92
46690;BME280;32423;45.398;10.874;2024-03-23T06:39:10;100429.16;;;13.26;60.05
46690;BME280;32423;45.398;10.874;2024-03-23T06:42:06;100423.13;;;13.33;60.15
46690;BME280;32423;45.398;10.874;2024-03-23T06:45:00;100422.25;;;13.41;60.03
46690;BME280;32423;45.398;10.874;2024-03-23T06:47:52;100426.22;;;13.43;60.59
46690;BME280;32423;45.398;10.874;2024-03-23T06:50:47;100428.63;;;13.45;60.84
46690;BME280;32423;45.398;10.874;2024-03-23T06:53:39;100429.84;;;13.47;61.37
46690;BME280;32423;45.398;10.874;2024-03-23T06:56:38;100412.44;;;13.64;61.75
46690;BME280;32423;45.398;10.874;2024-03-23T06:59:33;100416.53;;;13.70;61.47
46690;BME280;32423;45.398;10.874;2024-03-23T07:02:28;100402.75;;;13.79;61.33
46690;BME280;32423;45.398;10.874;2024-03-23T07:05:17;100405.25;;;13.84;61.40
46690;BME280;32423;45.398;10.874;2024-03-23T07:08:09;100395.63;;;14.02;61.07
46690;BME280;32423;45.398;10.874;2024-03-23T07:11:01;100390.84;;;14.11;60.76
46690;BME280;32423;45.398;10.874;2024-03-23T07:13:51;100386.59;;;14.69;62.11
46690;BME280;32423;45.398;10.874;2024-03-23T07:16:46;100379.78;;;14.63;60.60
46690;BME280;32423;45.398;10.874;2024-03-23T07:19:40;100384.25;;;14.68;59.91
46690;BME280;32423;45.398;10.874;2024-03-23T07:22:35;100376.81;;;14.68;59.24
46690;BME280;32423;45.398;10.874;2024-03-23T07:25:29;100378.25;;;14.78;58.82
46690;BME280;32423;45.398;10.874;2024-03-23T07:28:24;100384.78;;;14.89;58.31
46690;BME280;32423;45.398;10.874;2024-03-23T07:31:16;100380.28;;;14.81;58.38
46690;BME280;32423;45.398;10.874;2024-03-23T07:34:11;100384.25;;;14.99;59.25
46690;BME280;32423;45.398;10.874;2024-03-23T07:37:03;100388.50;;;15.12;57.95
46690;BME280;32423;45.398;10.874;2024-03-23T07:39:55;100392.75;;;15.25;57.59
46690;BME280;32423;45.398;10.874;2024-03-23T07:42:50;100377.91;;;15.26;56.33
46690;BME280;32423;45.398;10.874;2024-03-23T07:45:42;100371.44;;;15.34;56.28
46690;BME280;32423;45.398;10.874;2024-03-23T07:48:36;100371.19;;;16.09;55.13
46690;BME280;32423;45.398;10.874;2024-03-23T07:51:31;100373.09;;;16.86;52.49
46690;BME280;32423;45.398;10.874;2024-03-23T07:54:25;100370.22;;;17.28;49.59
46690;BME280;32423;45.398;10.874;2024-03-23T07:57:20;100359.16;;;17.47;49.03
46690;BME280;32423;45.398;10.874;2024-03-23T08:00:18;100357.97;;;17.48;48.92
46690;BME280;32423;45.398;10.874;2024-03-23T08:03:12;100350.75;;;17.63;48.92
46690;BME280;32423;45.398;10.874;2024-03-23T08:09:08;100363.19;;;17.79;48.87
46690;BME280;32423;45.398;10.874;2024-03-23T08:12:00;100365.41;;;17.70;49.92
46690;BME280;32423;45.398;10.874;2024-03-23T08:14:54;100363.09;;;17.72;50.38
46690;BME280;32423;45.398;10.874;2024-03-23T08:17:49;100362.22;;;17.68;50.64
46690;BME280;32423;45.398;10.874;2024-03-23T08:20:41;100363.53;;;17.78;49.65
46690;BME280;32423;45.398;10.874;2024-03-23T08:23:38;100367.09;;;17.78;49.07
46690;BME280;32423;45.398;10.874;2024-03-23T08:26:28;100365.06;;;16.77;53.51
46690;BME280;32423;45.398;10.874;2024-03-23T08:29:16;100369.44;;;16.59;52.69
46690;BME280;32423;45.398;10.874;2024-03-23T08:32:10;100369.16;;;16.64;52.74
46690;BME280;32423;45.398;10.874;2024-03-23T08:35:05;100356.44;;;16.37;53.98
46690;BME280;32423;45.398;10.874;2024-03-23T08:38:00;100353.03;;;16.43;52.88
46690;BME280;32423;45.398;10.874;2024-03-23T08:41:10;100354.09;;;16.58;53.21
46690;BME280;32423;45.398;10.874;2024-03-23T08:44:03;100348.28;;;17.05;51.84
46690;BME280;32423;45.398;10.874;2024-03-23T08:46:58;100354.19;;;17.30;50.05
46690;BME280;32423;45.398;10.874;2024-03-23T08:49:52;100338.09;;;17.84;48.71
46690;BME280;32423;45.398;10.874;2024-03-23T08:52:45;100338.81;;;18.08;48.41
46690;BME280;32423;45.398;10.874;2024-03-23T08:55:39;100327.19;;;20.36;43.87
46690;BME280;32423;45.398;10.874;2024-03-23T08:58:35;100338.53;;;24.68;34.43
46690;BME280;32423;45.398;10.874;2024-03-23T09:01:30;100340.78;;;27.91;28.63
46690;BME280;32423;45.398;10.874;2024-03-23T09:04:24;100331.19;;;28.97;26.45
46690;BME280;32423;45.398;10.874;2024-03-23T09:07:19;100332.97;;;30.38;25.21
46690;BME280;32423;45.398;10.874;2024-03-23T09:10:11;100339.91;;;28.61;26.34
46690;BME280;32423;45.398;10.874;2024-03-23T09:13:03;100335.69;;;29.98;23.95
46690;BME280;32423;45.398;10.874;2024-03-23T09:15:55;100348.34;;;31.71;22.12
46690;BME280;32423;45.398;10.874;2024-03-23T09:18:50;100337.38;;;31.19;22.62
46690;BME280;32423;45.398;10.874;2024-03-23T09:21:39;100337.84;;;32.92;21.23
46690;BME280;32423;45.398;10.874;2024-03-23T09:24:31;100327.94;;;32.73;21.45
46690;BME280;32423;45.398;10.874;2024-03-23T09:27:21;100327.34;;;32.69;21.31
46690;BME280;32423;45.398;10.874;2024-03-23T09:30:16;100324.53;;;29.63;24.17
46690;BME280;32423;45.398;10.874;2024-03-23T09:33:10;100321.25;;;31.10;22.95
46690;BME280;32423;45.398;10.874;2024-03-23T09:36:08;100316.25;;;30.56;23.24
46690;BME280;32423;45.398;10.874;2024-03-23T09:39:02;100319.16;;;29.91;24.46
46690;BME280;32423;45.398;10.874;2024-03-23T09:41:58;100320.34;;;31.13;22.69
46690;BME280;32423;45.398;10.874;2024-03-23T09:44:51;100317.03;;;29.60;24.57
46690;BME280;32423;45.398;10.874;2024-03-23T09:47:46;100314.81;;;28.70;25.82
46690;BME280;32423;45.398;10.874;2024-03-23T09:50:42;100294.28;;;29.80;24.96
46690;BME280;32423;45.398;10.874;2024-03-23T09:53:36;100299.06;;;28.26;25.58
46690;BME280;32423;45.398;10.874;2024-03-23T09:56:31;100296.25;;;32.03;21.64
46690;BME280;32423;45.398;10.874;2024-03-23T09:59:23;100292.09;;;32.41;21.63
46690;BME280;32423;45.398;10.874;2024-03-23T10:02:16;100290.34;;;33.71;20.53
46690;BME280;32423;45.398;10.874;2024-03-23T10:05:23;100272.19;;;28.41;25.59
46690;BME280;32423;45.398;10.874;2024-03-23T10:08:19;100248.88;;;32.11;21.38
46690;BME280;32423;45.398;10.874;2024-03-23T10:11:15;100251.03;;;31.74;22.16
46690;BME280;32423;45.398;10.874;2024-03-23T10:14:05;100255.69;;;34.99;19.48
46690;BME280;32423;45.398;10.874;2024-03-23T10:16:52;100246.78;;;35.52;18.87
46690;BME280;32423;45.398;10.874;2024-03-23T10:19:48;100233.34;;;36.73;17.26
46690;BME280;32423;45.398;10.874;2024-03-23T10:22:44;100216.66;;;33.01;20.56
46690;BME280;32423;45.398;10.874;2024-03-23T10:25:38;100210.88;;;33.87;20.32
46690;BME280;32423;45.398;10.874;2024-03-23T10:28:28;100211.72;;;35.18;17.96
46690;BME280;32423;45.398;10.874;2024-03-23T10:31:22;100204.59;;;33.54;20.26
46690;BME280;32423;45.398;10.874;2024-03-23T10:34:17;100210.75;;;33.82;18.55
46690;BME280;32423;45.398;10.874;2024-03-23T10:37:18;100210.97;;;38.23;15.35
46690;BME280;32423;45.398;10.874;2024-03-23T10:40:15;100201.13;;;35.96;16.97
46690;BME280;32423;45.398;10.874;2024-03-23T10:43:07;100190.28;;;34.51;18.03
46690;BME280;32423;45.398;10.874;2024-03-23T10:45:57;100180.44;;;30.63;21.84
46690;BME280;32423;45.398;10.874;2024-03-23T10:48:51;100181.81;;;27.10;26.25
46690;BME280;32423;45.398;10.874;2024-03-23T10:51:44;100175.97;;;28.00;25.52
46690;BME280;32423;45.398;10.874;2024-03-23T10:54:34;100183.25;;;32.71;20.21
46690;BME280;32423;45.398;10.874;2024-03-23T10:57:34;100167.19;;;31.96;20.02
46690;BME280;32423;45.398;10.874;2024-03-23T11:00:31;100162.44;;;35.25;16.87
46690;BME280;32423;45.398;10.874;2024-03-23T11:03:36;100161.16;;;37.33;14.81
46690;BME280;32423;45.398;10.874;2024-03-23T11:06:37;100165.44;;;39.85;13.53
46690;BME280;32423;45.398;10.874;2024-03-23T11:09:41;100148.81;;;31.08;21.48
46690;BME280;32423;45.398;10.874;2024-03-23T11:12:36;100145.25;;;35.91;16.90
46690;BME280;32423;45.398;10.874;2024-03-23T11:15:31;100148.69;;;38.47;15.14
46690;BME280;32423;45.398;10.874;2024-03-23T11:18:33;100139.50;;;37.80;14.46
46690;BME280;32423;45.398;10.874;2024-03-23T11:21:58;100125.13;;;36.69;15.69
46690;BME280;32423;45.398;10.874;2024-03-23T11:24:53;100110.50;;;36.81;16.32
46690;BME280;32423;45.398;10.874;2024-03-23T11:27:48;100107.59;;;39.96;13.70
46690;BME280;32423;45.398;10.874;2024-03-23T11:30:35;100109.00;;;38.20;14.30
46690;BME280;32423;45.398;10.874;2024-03-23T11:33:30;100091.56;;;35.66;16.50
46690;BME280;32423;45.398;10.874;2024-03-23T11:36:24;100101.44;;;35.76;16.62
46690;BME280;32423;45.398;10.874;2024-03-23T11:39:19;100087.13;;;37.48;15.33
46690;BME280;32423;45.398;10.874;2024-03-23T11:42:09;100081.00;;;41.43;12.59
46690;BME280;32423;45.398;10.874;2024-03-23T11:45:09;100073.97;;;41.12;12.26
46690;BME280;32423;45.398;10.874;2024-03-23T11:48:09;100079.84;;;43.25;11.45
46690;BME280;32423;45.398;10.874;2024-03-23T11:51:01;100058.41;;;39.11;13.16
46690;BME280;32423;45.398;10.874;2024-03-23T11:53:46;100041.66;;;32.70;19.22
46690;BME280;32423;45.398;10.874;2024-03-23T11:56:41;100023.41;;;31.28;20.95
46690;BME280;32423;45.398;10.874;2024-03-23T11:59:41;100024.09;;;37.94;15.68
46690;BME280;32423;45.398;10.874;2024-03-23T12:02:31;100021.72;;;41.62;12.68
46690;BME280;32423;45.398;10.874;2024-03-23T12:05:20;100009.81;;;35.05;17.76
46690;BME280;32423;45.398;10.874;2024-03-23T12:08:23;100011.34;;;35.06;18.23
46690;BME280;32423;45.398;10.874;2024-03-23T12:11:15;100016.94;;;32.26;20.87
46690;BME280;32423;45.398;10.874;2024-03-23T12:14:00;100003.66;;;35.38;17.42
46690;BME280;32423;45.398;10.874;2024-03-23T12:16:52;99989.59;;;37.45;15.88
46690;BME280;32423;45.398;10.874;2024-03-23T12:19:46;99996.22;;;42.30;12.09
46690;BME280;32423;45.398;10.874;2024-03-23T12:22:33;99983.06;;;36.33;16.58
46690;BME280;32423;45.398;10.874;2024-03-23T12:25:25;99970.22;;;32.44;20.41
46690;BME280;32423;45.398;10.874;2024-03-23T12:28:13;99956.25;;;31.30;21.52
46690;BME280;32423;45.398;10.874;2024-03-23T12:31:02;99952.41;;;26.16;27.89
46690;BME280;32423;45.398;10.874;2024-03-23T12:33:52;99951.00;;;27.20;26.85
46690;BME280;32423;45.398;10.874;2024-03-23T12:36:44;99945.50;;;31.62;21.29
46690;BME280;32423;45.398;10.874;2024-03-23T12:39:36;99945.28;;;33.45;19.31
46690;BME280;32423;45.398;10.874;2024-03-23T12:42:26;99935.16;;;33.93;19.27
46690;BME280;32423;45.398;10.874;2024-03-23T12:45:16;99943.47;;;38.14;14.70
46690;BME280;32423;45.398;10.874;2024-03-23T12:48:06;99925.28;;;32.79;19.25
46690;BME280;32423;45.398;10.874;2024-03-23T12:50:56;99915.28;;;27.15;26.62
46690;BME280;32423;45.398;10.874;2024-03-23T12:53:46;99891.78;;;26.20;28.53
46690;BME280;32423;45.398;10.874;2024-03-23T12:56:33;99884.47;;;26.93;28.06
46690;BME280;32423;45.398;10.874;2024-03-23T12:59:26;99895.06;;;26.31;28.97
46690;BME280;32423;45.398;10.874;2024-03-23T13:02:29;99896.09;;;25.80;30.07
46690;BME280;32423;45.398;10.874;2024-03-23T13:05:21;99890.53;;;25.80;30.20
46690;BME280;32423;45.398;10.874;2024-03-23T13:08:16;99892.25;;;24.57;31.70
46690;BME280;32423;45.398;10.874;2024-03-23T13:11:08;99886.13;;;25.18;30.79
46690;BME280;32423;45.398;10.874;2024-03-23T13:14:00;99890.53;;;25.47;29.32
46690;BME280;32423;45.398;10.874;2024-03-23T13:16:55;99895.41;;;23.76;31.71
46690;BME280;32423;45.398;10.874;2024-03-23T13:19:50;99891.06;;;23.29;33.00
46690;BME280;32423;45.398;10.874;2024-03-23T13:22:44;99887.16;;;23.93;31.25
46690;BME280;32423;45.398;10.874;2024-03-23T13:25:34;99891.38;;;24.60;31.36
46690;BME280;32423;45.398;10.874;2024-03-23T13:28:29;99886.72;;;24.93;30.74
46690;BME280;32423;45.398;10.874;2024-03-23T13:31:23;99890.81;;;24.68;30.37
46690;BME280;32423;45.398;10.874;2024-03-23T13:34:18;99895.50;;;24.71;30.85
46690;BME280;32423;45.398;10.874;2024-03-23T13:37:13;99886.19;;;25.30;29.99
46690;BME280;32423;45.398;10.874;2024-03-23T13:40:06;99884.13;;;26.24;29.08
46690;BME280;32423;45.398;10.874;2024-03-23T13:42:56;99877.50;;;24.40;31.25
46690;BME280;32423;45.398;10.874;2024-03-23T13:45:49;99881.25;;;25.99;29.43
46690;BME280;32423;45.398;10.874;2024-03-23T13:48:45;99879.41;;;25.47;30.48
46690;BME280;32423;45.398;10.874;2024-03-23T13:51:39;99866.00;;;25.26;30.08
46690;BME280;32423;45.398;10.874;2024-03-23T13:54:34;99852.63;;;24.53;31.64
46690;BME280;32423;45.398;10.874;2024-03-23T13:57:29;99854.56;;;29.33;25.21
46690;BME280;32423;45.398;10.874;2024-03-23T14:00:21;99849.72;;;28.23;26.37
46690;BME280;32423;45.398;10.874;2024-03-23T14:03:15;99839.50;;;31.92;21.78
46690;BME280;32423;45.398;10.874;2024-03-23T14:06:10;99824.03;;;32.25;21.47
46690;BME280;32423;45.398;10.874;2024-03-23T14:09:04;99809.97;;;30.35;22.44
46690;BME280;32423;45.398;10.874;2024-03-23T14:12:00;99786.25;;;31.50;21.63
46690;BME280;32423;45.398;10.874;2024-03-23T14:14:50;99772.00;;;28.98;23.94
46690;BME280;32423;45.398;10.874;2024-03-23T14:17:42;99774.53;;;30.56;23.21
46690;BME280;32423;45.398;10.874;2024-03-23T14:20:34;99769.53;;;29.27;23.72
46690;BME280;32423;45.398;10.874;2024-03-23T14:23:26;99775.00;;;28.63;25.08
46690;BME280;32423;45.398;10.874;2024-03-23T14:26:21;99765.06;;;25.09;30.62
46690;BME280;32423;45.398;10.874;2024-03-23T14:29:13;99772.81;;;23.35;33.24
46690;BME280;32423;45.398;10.874;2024-03-23T14:32:07;99769.91;;;22.99;35.05
46690;BME280;32423;45.398;10.874;2024-03-23T14:35:05;99779.97;;;22.63;35.24
46690;BME280;32423;45.398;10.874;2024-03-23T14:38:00;99783.81;;;22.72;35.15
46690;BME280;32423;45.398;10.874;2024-03-23T14:40:55;99779.72;;;22.80;35.13
46690;BME280;32423;45.398;10.874;2024-03-23T14:43:52;99770.63;;;22.53;35.62
46690;BME280;32423;45.398;10.874;2024-03-23T14:46:46;99766.97;;;22.02;36.76
46690;BME280;32423;45.398;10.874;2024-03-23T14:49:33;99773.50;;;22.15;36.70
46690;BME280;32423;45.398;10.874;2024-03-23T14:52:25;99774.31;;;22.16;36.99
46690;BME280;32423;45.398;10.874;2024-03-23T14:55:21;99781.13;;;21.74;37.32
46690;BME280;32423;45.398;10.874;2024-03-23T14:58:13;99769.13;;;21.88;38.15
46690;BME280;32423;45.398;10.874;2024-03-23T15:01:05;99774.16;;;21.96;37.93
46690;BME280;32423;45.398;10.874;2024-03-23T15:03:58;99762.63;;;22.01;37.74
46690;BME280;32423;45.398;10.874;2024-03-23T15:06:57;99771.91;;;22.18;38.12
46690;BME280;32423;45.398;10.874;2024-03-23T15:09:50;99772.88;;;22.35;37.97
46690;BME280;32423;45.398;10.874;2024-03-23T15:12:44;99783.78;;;22.18;38.10
46690;BME280;32423;45.398;10.874;2024-03-23T15:15:39;99785.34;;;22.20;38.04
46690;BME280;32423;45.398;10.874;2024-03-23T15:18:33;99781.56;;;22.06;38.10
46690;BME280;32423;45.398;10.874;2024-03-23T15:21:24;99784.00;;;22.01;38.17
46690;BME280;32423;45.398;10.874;2024-03-23T15:24:16;99784.72;;;22.08;38.38
46690;BME280;32423;45.398;10.874;2024-03-23T15:27:08;99783.06;;;22.14;38.50
46690;BME280;32423;45.398;10.874;2024-03-23T15:30:03;99779.94;;;22.09;39.12
46690;BME280;32423;45.398;10.874;2024-03-23T15:32:59;99778.75;;;21.76;39.10
46690;BME280;32423;45.398;10.874;2024-03-23T15:35:51;99781.69;;;21.62;38.99
46690;BME280;32423;45.398;10.874;2024-03-23T15:38:41;99779.56;;;21.73;39.66
46690;BME280;32423;45.398;10.874;2024-03-23T15:41:34;99770.78;;;21.82;39.31
46690;BME280;32423;45.398;10.874;2024-03-23T15:44:27;99760.81;;;21.54;39.67
46690;BME280;32423;45.398;10.874;2024-03-23T15:47:26;99762.03;;;21.49;40.31
46690;BME280;32423;45.398;10.874;2024-03-23T15:50:20;99764.69;;;21.60;40.39
46690;BME280;32423;45.398;10.874;2024-03-23T15:53:15;99753.13;;;21.34;40.84
46690;BME280;32423;45.398;10.874;2024-03-23T15:56:07;99745.31;;;21.26;41.42